Search for airport 
image banner adimage banner ad
image banner ad

DNYO - Yola/Yola

Located in Yola, Nigeria

ICAO - DNYO, IATA - YOL

Data provided by Airmate  

General information

Coordinates: N9°15'28" E12°25'49"
Elevation is 613 feet MSL.
 
Rated:
View ratings: [VIEW]


View others Airports in Adamawa

Operational data

Open for public use
Current time UTC:
Current local time:
Weather
TAF: TAF DNYO 062300Z 0700/0806 25005KT 9999 SCT010 TEMPO 0712/0718 5000 TSRA BKN010 FEW022CB
View NOTAMs / SUP AIP / TFR affecting this airport [VIEW]
Communications frequencies: [VIEW]

Runways:

RWY identifierQFULength (ft)Width (ft)SurfaceLDA (ft)
17171°9843148
35350°9843148

Airport contact information

Address: Yola Nigeria

Satellite view of DNYO